createdAt,value
2023-03-01T00:00:39.588Z,49.79
2023-03-01T00:01:39.578Z,52.08
2023-03-01T00:02:39.595Z,54.10
2023-03-01T00:03:39.587Z,52.93
2023-03-01T00:04:39.566Z,50.92
2023-03-01T00:05:39.543Z,53.31
2023-03-01T00:06:39.531Z,50.18
2023-03-01T00:07:39.513Z,51.93
2023-03-01T00:08:39.514Z,54.54
2023-03-01T00:09:39.517Z,53.25
2023-03-01T00:10:39.491Z,49.75
2023-03-01T00:11:39.489Z,52.96
2023-03-01T00:12:39.504Z,54.79
2023-03-01T00:13:39.456Z,61.88
2023-03-01T00:14:39.475Z,61.23
2023-03-01T00:15:39.439Z,51.14
2023-03-01T00:16:39.489Z,52.61
2023-03-01T00:17:39.456Z,53.23
2023-03-01T00:18:39.413Z,58.26
2023-03-01T00:19:39.399Z,67.57
2023-03-01T00:20:39.399Z,56.34
2023-03-01T00:21:39.405Z,50.36
2023-03-01T00:22:39.379Z,51.29
2023-03-01T00:23:39.385Z,49.64
2023-03-01T00:24:39.359Z,48.75
2023-03-01T00:25:39.339Z,47.85
2023-03-01T00:26:39.360Z,54.49
2023-03-01T00:27:39.322Z,56.63
2023-03-01T00:28:39.320Z,61.76
2023-03-01T00:29:39.321Z,49.45
2023-03-01T00:30:39.339Z,49.99
2023-03-01T00:31:39.312Z,52.20
2023-03-01T00:32:39.278Z,53.20
2023-03-01T00:33:39.281Z,51.41
2023-03-01T00:34:39.267Z,53.26
2023-03-01T00:35:39.287Z,53.62
2023-03-01T00:36:39.295Z,51.07
2023-03-01T00:37:39.240Z,52.49
2023-03-01T00:38:39.240Z,52.84
2023-03-01T00:39:39.219Z,53.04
2023-03-01T00:40:39.211Z,50.20
2023-03-01T00:41:39.211Z,51.08
2023-03-01T00:42:39.212Z,49.10
2023-03-01T00:43:39.182Z,47.88
2023-03-01T00:44:39.161Z,51.08
2023-03-01T00:45:39.169Z,65.36
2023-03-01T00:46:39.312Z,54.04
2023-03-01T00:47:39.160Z,48.43
2023-03-01T00:48:39.161Z,47.38
2023-03-01T00:49:39.136Z,50.90
2023-03-01T00:50:39.123Z,65.36
2023-03-01T00:51:39.094Z,51.02
2023-03-01T00:52:39.092Z,62.16
2023-03-01T00:53:39.077Z,53.68
2023-03-01T00:54:39.090Z,50.02
2023-03-01T00:55:39.062Z,52.39
2023-03-01T00:56:39.046Z,55.84
2023-03-01T00:57:39.025Z,63.00
2023-03-01T00:58:39.057Z,52.67
2023-03-01T00:59:39.035Z,51.83
2023-03-01T01:00:39.042Z,54.24
2023-03-01T01:01:39.092Z,54.67
2023-03-01T01:02:39.031Z,50.37
2023-03-01T01:03:38.987Z,53.42
2023-03-01T01:04:38.986Z,61.26
2023-03-01T01:05:38.970Z,59.65
2023-03-01T01:06:38.958Z,53.42
2023-03-01T01:07:38.934Z,47.54
2023-03-01T01:08:38.945Z,51.21
2023-03-01T01:09:38.947Z,54.63
2023-03-01T01:11:10.808Z,53.93
2023-03-01T01:11:38.898Z,49.23
2023-03-01T01:12:38.908Z,49.80
2023-03-01T01:13:38.881Z,47.96
2023-03-01T01:14:38.867Z,49.22
2023-03-01T01:15:38.891Z,58.19
2023-03-01T01:16:38.867Z,50.32
2023-03-01T01:17:38.843Z,47.95
2023-03-01T01:18:38.838Z,47.81
2023-03-01T01:19:38.825Z,52.87
2023-03-01T01:20:38.836Z,54.14
2023-03-01T01:21:38.813Z,54.56
2023-03-01T01:22:38.794Z,54.60
2023-03-01T01:23:38.824Z,64.42
2023-03-01T01:24:38.777Z,50.11
2023-03-01T01:25:38.765Z,48.87
2023-03-01T01:26:38.764Z,48.62
2023-03-01T01:27:38.751Z,49.79
2023-03-01T01:28:38.744Z,66.36
2023-03-01T01:29:38.731Z,55.47
2023-03-01T01:30:38.712Z,52.59
2023-03-01T01:31:38.728Z,53.28
2023-03-01T01:32:38.691Z,51.47
2023-03-01T01:33:38.698Z,52.77
2023-03-01T01:34:38.679Z,55.20
2023-03-01T01:35:38.685Z,50.86
2023-03-01T01:36:38.683Z,48.67
2023-03-01T01:37:38.654Z,51.19
2023-03-01T01:38:38.646Z,54.41
2023-03-01T01:39:38.644Z,67.62
2023-03-01T01:40:38.623Z,54.56
2023-03-01T01:41:38.616Z,54.32
2023-03-01T01:42:38.600Z,59.01
2023-03-01T01:43:38.592Z,46.26
2023-03-01T01:44:38.576Z,45.64
2023-03-01T01:45:38.578Z,49.82
2023-03-01T01:46:38.650Z,51.82
2023-03-01T01:47:38.555Z,54.57
2023-03-01T01:48:38.538Z,55.66
2023-03-01T01:49:38.531Z,52.20
2023-03-01T01:50:38.533Z,58.19
2023-03-01T01:51:38.520Z,54.88
2023-03-01T01:52:38.529Z,52.54
2023-03-01T01:53:38.497Z,48.62
2023-03-01T01:54:38.486Z,53.94
2023-03-01T01:55:38.482Z,50.48
2023-03-01T01:56:38.485Z,55.76
2023-03-01T01:57:38.460Z,50.83
2023-03-01T01:58:38.450Z,52.96
2023-03-01T01:59:38.436Z,49.62
2023-03-01T02:00:38.455Z,50.48
2023-03-01T02:01:38.418Z,54.60
2023-03-01T02:02:38.613Z,55.88
2023-03-01T02:03:38.676Z,59.70
2023-03-01T02:04:38.396Z,58.51
2023-03-01T02:05:38.393Z,47.25
2023-03-01T02:06:38.367Z,47.80
2023-03-01T02:07:39.371Z,53.39
2023-03-01T02:08:38.348Z,54.38
2023-03-01T02:09:38.345Z,50.80
2023-03-01T02:10:38.356Z,47.74
2023-03-01T02:11:38.322Z,48.18
2023-03-01T02:12:38.316Z,50.02
2023-03-01T02:13:38.315Z,48.14
2023-03-01T02:14:38.296Z,48.58
2023-03-01T02:15:38.309Z,51.84
2023-03-01T02:16:38.445Z,59.69
2023-03-01T02:17:38.261Z,62.14
2023-03-01T02:18:38.255Z,60.75
2023-03-01T02:19:38.236Z,53.30
2023-03-01T02:20:38.252Z,53.39
2023-03-01T02:21:38.227Z,52.16
2023-03-01T02:22:38.265Z,51.02
2023-03-01T02:23:38.204Z,56.27
2023-03-01T02:24:38.194Z,48.27
2023-03-01T02:25:38.214Z,47.39
2023-03-01T02:26:38.170Z,50.45
2023-03-01T02:27:38.214Z,63.93
2023-03-01T02:28:38.166Z,54.08
2023-03-01T02:29:38.156Z,48.67
2023-03-01T02:30:38.148Z,49.25
2023-03-01T02:31:38.211Z,59.94
2023-03-01T02:32:38.143Z,57.56
2023-03-01T02:33:38.133Z,51.72
2023-03-01T02:34:38.100Z,49.03
2023-03-01T02:35:38.132Z,46.55
2023-03-01T02:36:38.093Z,50.89
2023-03-01T02:37:38.074Z,55.28
2023-03-01T02:38:38.083Z,53.04
2023-03-01T02:39:38.050Z,52.95
2023-03-01T02:40:38.043Z,55.21
2023-03-01T02:41:38.037Z,46.76
2023-03-01T02:42:38.025Z,48.30
2023-03-01T02:43:38.039Z,49.23
2023-03-01T02:44:38.021Z,51.63
2023-03-01T02:45:38.023Z,56.27
2023-03-01T02:46:38.012Z,51.67
2023-03-01T02:47:37.977Z,53.01
2023-03-01T02:48:37.966Z,54.78
2023-03-01T02:49:37.957Z,52.19
2023-03-01T02:50:37.957Z,55.19
2023-03-01T02:51:38.938Z,54.82
2023-03-01T02:52:37.949Z,62.62
2023-03-01T02:53:37.929Z,59.88
2023-03-01T02:54:37.924Z,52.12
2023-03-01T02:55:37.920Z,49.63
2023-03-01T02:56:37.901Z,52.75
2023-03-01T02:57:37.902Z,64.80
2023-03-01T02:58:37.905Z,59.92
2023-03-01T02:59:37.857Z,51.72
2023-03-01T03:00:37.899Z,52.44
2023-03-01T03:01:37.878Z,53.48
2023-03-01T03:02:37.855Z,51.01
2023-03-01T03:03:37.860Z,54.13
2023-03-01T03:04:37.849Z,61.18
2023-03-01T03:05:37.792Z,61.49
2023-03-01T03:06:37.804Z,56.95
2023-03-01T03:07:37.771Z,57.91
2023-03-01T03:08:37.819Z,57.65
2023-03-01T03:09:37.783Z,50.22
2023-03-01T03:10:37.754Z,54.85
2023-03-01T03:11:37.798Z,52.60
2023-03-01T03:12:37.737Z,53.10
2023-03-01T03:13:37.748Z,54.33
2023-03-01T03:14:37.711Z,54.48
2023-03-01T03:15:37.733Z,54.80
2023-03-01T03:16:37.715Z,53.10
2023-03-01T03:17:37.692Z,56.62
2023-03-01T03:18:37.679Z,55.97
2023-03-01T03:19:37.665Z,51.71
2023-03-01T03:20:37.690Z,65.25
2023-03-01T03:21:37.650Z,56.32
2023-03-01T03:22:37.654Z,56.67
2023-03-01T03:23:37.657Z,52.36
2023-03-01T03:24:37.617Z,60.20
2023-03-01T03:25:37.613Z,51.54
2023-03-01T03:26:37.640Z,55.57
2023-03-01T03:27:37.603Z,54.60
2023-03-01T03:28:37.587Z,50.76
2023-03-01T03:29:37.577Z,55.91
2023-03-01T03:30:37.565Z,56.72
2023-03-01T03:31:37.649Z,63.32
2023-03-01T03:32:37.566Z,57.22
2023-03-01T03:33:37.533Z,53.13
2023-03-01T03:34:37.533Z,57.63
2023-03-01T03:35:37.558Z,57.90
2023-03-01T03:36:37.514Z,57.63
2023-03-01T03:37:37.524Z,53.48
2023-03-01T03:38:37.497Z,54.48
2023-03-01T03:39:37.480Z,64.42
2023-03-01T03:40:37.513Z,58.12
2023-03-01T03:41:37.477Z,61.98
2023-03-01T03:42:37.457Z,62.73
2023-03-01T03:43:37.488Z,54.87
2023-03-01T03:44:37.501Z,54.06
2023-03-01T03:45:37.471Z,59.20
2023-03-01T03:46:37.431Z,58.09
2023-03-01T03:47:37.409Z,58.68
2023-03-01T03:48:37.425Z,53.77
2023-03-01T03:49:37.399Z,54.50
2023-03-01T03:50:37.387Z,60.60
2023-03-01T03:51:37.410Z,69.69
2023-03-01T03:52:37.366Z,56.96
2023-03-01T03:53:37.349Z,56.98
2023-03-01T03:54:37.342Z,55.12
2023-03-01T03:55:37.338Z,65.67
2023-03-01T03:56:38.766Z,60.00
2023-03-01T03:57:37.314Z,58.45
2023-03-01T03:58:37.325Z,55.52
2023-03-01T03:59:37.287Z,54.75
2023-03-01T04:00:37.302Z,57.00
2023-03-01T04:01:37.370Z,55.55
2023-03-01T04:02:37.342Z,58.52
2023-03-01T04:03:37.265Z,56.17
2023-03-01T04:04:37.275Z,59.06
2023-03-01T04:05:37.264Z,56.30
2023-03-01T04:06:37.249Z,57.29
2023-03-01T04:07:37.264Z,57.14
2023-03-01T04:08:37.269Z,56.90
2023-03-01T04:09:37.206Z,59.86
2023-03-01T04:10:37.219Z,66.59
2023-03-01T04:11:37.184Z,64.70
2023-03-01T04:12:37.196Z,59.48
2023-03-01T04:13:37.181Z,60.33
2023-03-01T04:14:37.171Z,66.51
2023-03-01T04:15:37.192Z,63.68
2023-03-01T04:16:37.202Z,61.61
2023-03-01T04:17:37.128Z,66.01
2023-03-01T04:18:37.119Z,55.15
2023-03-01T04:19:37.106Z,58.87
2023-03-01T04:20:37.114Z,57.54
2023-03-01T04:21:37.105Z,61.46
2023-03-01T04:22:37.077Z,62.44
2023-03-01T04:23:37.069Z,56.03
2023-03-01T04:24:37.060Z,59.66
2023-03-01T04:25:37.079Z,60.73
2023-03-01T04:26:37.054Z,58.78
2023-03-01T04:27:37.034Z,58.75
2023-03-01T04:28:37.022Z,58.10
2023-03-01T04:29:37.012Z,58.29
2023-03-01T04:30:37.008Z,58.83
2023-03-01T04:31:37.029Z,59.44
2023-03-01T04:32:37.106Z,56.33
2023-03-01T04:33:36.971Z,57.04
2023-03-01T04:34:36.973Z,64.56
2023-03-01T04:35:37.117Z,60.06
2023-03-01T04:36:37.376Z,64.71
2023-03-01T04:37:36.949Z,62.31
2023-03-01T04:38:36.925Z,59.92
2023-03-01T04:39:36.919Z,59.63
2023-03-01T04:40:36.925Z,59.14
2023-03-01T04:41:36.904Z,66.52
2023-03-01T04:42:36.883Z,59.29
2023-03-01T04:43:36.896Z,60.42
2023-03-01T04:44:36.869Z,59.56
2023-03-01T04:45:36.977Z,61.26
2023-03-01T04:46:36.857Z,59.08
2023-03-01T04:47:36.860Z,59.59
2023-03-01T04:48:36.848Z,68.66
2023-03-01T04:49:36.827Z,60.66
2023-03-01T04:50:36.852Z,61.24
2023-03-01T04:51:36.839Z,59.16
2023-03-01T04:52:36.804Z,67.03
2023-03-01T04:53:36.811Z,59.61
2023-03-01T04:54:36.765Z,60.57
2023-03-01T04:55:36.764Z,66.46
2023-03-01T04:56:36.763Z,58.84
2023-03-01T04:57:36.757Z,57.08
2023-03-01T04:58:36.735Z,59.62
2023-03-01T04:59:36.724Z,65.06
2023-03-01T05:00:36.726Z,59.71
2023-03-01T05:01:36.733Z,58.95
2023-03-01T05:02:36.744Z,59.25
2023-03-01T05:03:36.693Z,59.40
2023-03-01T05:04:36.719Z,59.62
2023-03-01T05:05:36.699Z,59.77
2023-03-01T05:06:36.656Z,58.92
2023-03-01T05:07:36.643Z,59.40
2023-03-01T05:08:36.638Z,63.99
2023-03-01T05:09:36.627Z,60.31
2023-03-01T05:10:36.643Z,59.00
2023-03-01T05:11:36.635Z,59.70
2023-03-01T05:12:36.601Z,60.82
2023-03-01T05:13:36.589Z,67.67
2023-03-01T05:14:36.597Z,62.25
2023-03-01T05:15:36.630Z,60.07
2023-03-01T05:16:36.981Z,61.97
2023-03-01T05:17:36.561Z,61.97
2023-03-01T05:18:36.570Z,60.53
2023-03-01T05:19:36.545Z,59.72
2023-03-01T05:20:36.559Z,58.67
2023-03-01T05:21:36.519Z,57.36
2023-03-01T05:22:36.513Z,62.13
2023-03-01T05:23:36.516Z,61.27
2023-03-01T05:24:36.501Z,60.83
2023-03-01T05:25:36.501Z,62.26
2023-03-01T05:26:36.569Z,62.16
2023-03-01T05:27:36.478Z,63.30
2023-03-01T05:28:36.481Z,68.47
2023-03-01T05:29:36.478Z,61.31
2023-03-01T05:30:36.435Z,62.96
2023-03-01T05:31:36.459Z,67.78
2023-03-01T05:32:36.434Z,60.67
2023-03-01T05:33:38.571Z,62.07
2023-03-01T05:34:36.409Z,70.63
2023-03-01T05:35:36.477Z,63.54
2023-03-01T05:36:36.404Z,62.15
2023-03-01T05:37:36.380Z,63.37
2023-03-01T05:38:36.371Z,59.99
2023-03-01T05:39:36.369Z,61.42
2023-03-01T05:40:36.350Z,68.89
2023-03-01T05:41:36.352Z,60.90
2023-03-01T05:42:36.338Z,60.96
2023-03-01T05:43:36.341Z,64.67
2023-03-01T05:44:36.309Z,66.82
2023-03-01T05:45:36.339Z,63.14
2023-03-01T05:46:36.290Z,65.84
2023-03-01T05:47:36.275Z,64.37
2023-03-01T05:48:36.319Z,65.12
2023-03-01T05:49:38.292Z,68.89
2023-03-01T05:50:36.257Z,64.88
2023-03-01T05:51:36.247Z,62.46
2023-03-01T05:52:36.231Z,69.34
2023-03-01T05:53:36.229Z,64.78
2023-03-01T05:54:36.238Z,61.73
2023-03-01T05:55:36.219Z,63.74
2023-03-01T05:56:36.213Z,63.37
2023-03-01T05:57:36.185Z,62.75
2023-03-01T05:58:36.189Z,61.61
2023-03-01T05:59:36.172Z,62.99
2023-03-01T06:00:36.156Z,69.09
2023-03-01T06:01:36.167Z,63.20
2023-03-01T06:02:36.148Z,62.28
2023-03-01T06:03:36.151Z,61.98
2023-03-01T06:04:37.169Z,65.77
2023-03-01T06:05:36.155Z,64.96
2023-03-01T06:06:36.139Z,62.44
2023-03-01T06:07:36.111Z,67.23
2023-03-01T06:08:36.112Z,69.72
2023-03-01T06:09:36.089Z,66.95
2023-03-01T06:10:36.066Z,63.76
2023-03-01T06:11:36.071Z,66.31
2023-03-01T06:12:36.032Z,63.93
2023-03-01T06:13:36.037Z,64.64
2023-03-01T06:14:36.037Z,61.31
2023-03-01T06:15:36.102Z,61.73
2023-03-01T06:16:36.010Z,61.34
2023-03-01T06:17:36.007Z,62.15
2023-03-01T06:18:35.996Z,65.21
2023-03-01T06:19:35.994Z,64.16
2023-03-01T06:20:35.977Z,61.99
2023-03-01T06:21:35.998Z,62.36
2023-03-01T06:22:35.946Z,63.41
2023-03-01T06:23:35.955Z,63.06
2023-03-01T06:24:35.932Z,63.55
2023-03-01T06:25:35.937Z,62.42
2023-03-01T06:26:35.921Z,62.76
2023-03-01T06:27:35.898Z,63.07
2023-03-01T06:28:35.890Z,62.68
2023-03-01T06:29:35.880Z,63.72
2023-03-01T06:30:35.896Z,62.47
2023-03-01T06:31:35.945Z,69.35
2023-03-01T06:32:35.858Z,63.64
2023-03-01T06:33:35.838Z,63.46
2023-03-01T06:34:35.840Z,65.60
2023-03-01T06:35:35.865Z,64.37
2023-03-01T06:36:35.838Z,66.55
2023-03-01T06:37:35.811Z,71.88
2023-03-01T06:38:35.820Z,65.48
2023-03-01T06:39:35.795Z,64.77
2023-03-01T06:40:35.783Z,65.24
2023-03-01T06:41:35.785Z,63.37
2023-03-01T06:42:36.786Z,62.61
2023-03-01T06:43:35.744Z,63.29
2023-03-01T06:44:35.754Z,63.19
2023-03-01T06:45:35.763Z,62.93
2023-03-01T06:46:35.783Z,63.24
2023-03-01T06:47:35.731Z,62.54
2023-03-01T06:48:35.708Z,65.07
2023-03-01T06:49:35.718Z,64.27
2023-03-01T06:50:35.783Z,61.69
2023-03-01T06:51:35.684Z,62.25
2023-03-01T06:52:35.669Z,61.50
2023-03-01T06:53:35.654Z,66.61
2023-03-01T06:54:35.653Z,63.26
2023-03-01T06:55:35.678Z,61.09
2023-03-01T06:56:35.632Z,60.82
2023-03-01T06:57:35.639Z,68.47
2023-03-01T06:58:35.655Z,62.28
2023-03-01T06:59:35.608Z,61.21
2023-03-01T07:00:35.611Z,61.24
2023-03-01T07:01:35.609Z,61.77
2023-03-01T07:02:35.601Z,61.28
2023-03-01T07:03:35.573Z,61.24
2023-03-01T07:04:35.563Z,62.39
2023-03-01T07:05:35.558Z,61.88
2023-03-01T07:06:35.527Z,64.84
2023-03-01T07:07:35.509Z,61.46
2023-03-01T07:08:35.531Z,65.34
2023-03-01T07:09:35.525Z,65.13
2023-03-01T07:10:35.498Z,62.19
2023-03-01T07:12:07.406Z,59.81
2023-03-01T07:12:35.477Z,61.71
2023-03-01T07:13:35.467Z,63.30
2023-03-01T07:14:35.447Z,65.69
2023-03-01T07:15:35.453Z,68.06
2023-03-01T07:16:35.649Z,63.28
2023-03-01T07:17:35.436Z,60.88
2023-03-01T07:18:35.411Z,60.21
2023-03-01T07:19:35.407Z,62.18
2023-03-01T07:20:35.390Z,61.51
2023-03-01T07:21:35.372Z,61.03
2023-03-01T07:22:36.397Z,61.00
2023-03-01T07:23:35.373Z,61.92
2023-03-01T07:24:35.349Z,62.33
2023-03-01T07:25:35.340Z,60.49
2023-03-01T07:26:35.334Z,60.91
2023-03-01T07:27:35.348Z,70.60
2023-03-01T07:28:35.316Z,62.98
2023-03-01T07:29:35.302Z,63.20
2023-03-01T07:30:35.292Z,70.87
2023-03-01T07:31:35.297Z,61.49
2023-03-01T07:32:35.370Z,61.69
2023-03-01T07:33:35.268Z,61.08
2023-03-01T07:34:35.252Z,62.82
2023-03-01T07:35:35.268Z,61.08
2023-03-01T07:36:35.251Z,61.29
2023-03-01T07:37:35.223Z,60.72
2023-03-01T07:38:35.231Z,59.82
2023-03-01T07:39:35.239Z,60.92
2023-03-01T07:40:35.202Z,63.40
2023-03-01T07:41:35.198Z,62.06
2023-03-01T07:42:35.181Z,60.51
2023-03-01T07:43:35.198Z,61.02
2023-03-01T07:44:35.182Z,60.55
2023-03-01T07:45:35.172Z,61.45
2023-03-01T07:46:35.146Z,65.20
2023-03-01T07:47:35.125Z,65.58
2023-03-01T07:48:35.122Z,60.59
2023-03-01T07:49:35.125Z,61.99
2023-03-01T07:50:35.110Z,61.10
2023-03-01T07:51:35.080Z,60.43
2023-03-01T07:52:35.067Z,61.01
2023-03-01T07:53:35.075Z,61.08
2023-03-01T07:54:35.060Z,62.21
2023-03-01T07:55:35.063Z,67.95
2023-03-01T07:56:35.037Z,60.30
2023-03-01T07:57:35.024Z,59.52
2023-03-01T07:58:35.011Z,61.10
2023-03-01T07:59:35.016Z,69.05
2023-03-01T08:00:35.012Z,61.20
2023-03-01T08:01:35.010Z,62.11
2023-03-01T08:02:34.975Z,60.48
2023-03-01T08:03:34.958Z,60.84
2023-03-01T08:04:34.960Z,65.60
2023-03-01T08:05:34.928Z,60.10
2023-03-01T08:06:34.918Z,61.21
2023-03-01T08:07:34.926Z,58.56
2023-03-01T08:08:34.896Z,60.71
2023-03-01T08:09:34.920Z,62.13
2023-03-01T08:10:34.888Z,61.67
2023-03-01T08:11:34.895Z,68.01
2023-03-01T08:12:34.854Z,61.24
2023-03-01T08:13:34.849Z,59.69
2023-03-01T08:14:34.850Z,59.76
2023-03-01T08:15:34.909Z,62.15
2023-03-01T08:16:34.999Z,59.48
2023-03-01T08:17:34.806Z,60.74
2023-03-01T08:18:34.810Z,61.44
2023-03-01T08:19:34.816Z,58.48
2023-03-01T08:20:34.858Z,60.32
2023-03-01T08:21:34.769Z,62.52
2023-03-01T08:22:34.769Z,60.92
2023-03-01T08:23:34.754Z,61.04
2023-03-01T08:24:34.737Z,61.67
2023-03-01T08:25:34.729Z,60.42
2023-03-01T08:26:34.734Z,65.78
2023-03-01T08:27:34.728Z,60.12
2023-03-01T08:28:34.705Z,60.46
2023-03-01T08:29:34.698Z,65.87
2023-03-01T08:30:34.700Z,59.34
2023-03-01T08:31:34.713Z,63.55
2023-03-01T08:32:34.693Z,67.61
2023-03-01T08:33:34.659Z,61.32
2023-03-01T08:34:35.654Z,60.04
2023-03-01T08:35:34.687Z,59.40
2023-03-01T08:36:34.856Z,61.11
2023-03-01T08:37:35.620Z,58.66
2023-03-01T08:38:34.643Z,61.49
2023-03-01T08:39:34.602Z,64.11
2023-03-01T08:40:34.599Z,61.83
2023-03-01T08:41:34.576Z,61.11
2023-03-01T08:42:34.562Z,60.22
2023-03-01T08:43:34.578Z,58.96
2023-03-01T08:44:34.565Z,60.12
2023-03-01T08:45:34.573Z,62.00
2023-03-01T08:46:34.774Z,66.60
2023-03-01T08:47:34.589Z,60.95
2023-03-01T08:48:34.551Z,58.74
2023-03-01T08:49:34.533Z,61.64
2023-03-01T08:50:34.498Z,64.69
2023-03-01T08:51:34.501Z,61.15
2023-03-01T08:52:34.521Z,61.77
2023-03-01T08:53:35.462Z,61.00
2023-03-01T08:54:34.454Z,60.51
2023-03-01T08:55:34.439Z,58.23
2023-03-01T08:56:34.433Z,58.59
2023-03-01T08:57:34.417Z,59.06
2023-03-01T08:58:34.458Z,60.52
2023-03-01T08:59:34.404Z,61.11
2023-03-01T09:00:34.378Z,58.62
2023-03-01T09:01:34.372Z,59.78
2023-03-01T09:02:34.423Z,66.24
2023-03-01T09:03:34.397Z,60.65
2023-03-01T09:04:34.376Z,59.40
2023-03-01T09:05:34.330Z,59.63
2023-03-01T09:06:34.325Z,60.72
2023-03-01T09:07:34.316Z,60.90
2023-03-01T09:08:34.299Z,59.73
2023-03-01T09:09:34.337Z,66.23
2023-03-01T09:10:34.283Z,61.19
2023-03-01T09:11:34.325Z,60.16
2023-03-01T09:12:34.272Z,60.93
2023-03-01T09:13:34.272Z,59.11
2023-03-01T09:14:34.265Z,61.15
2023-03-01T09:15:34.236Z,60.19
2023-03-01T09:16:34.436Z,59.63
2023-03-01T09:17:34.220Z,58.44
2023-03-01T09:18:34.218Z,60.15
2023-03-01T09:19:34.249Z,62.22
2023-03-01T09:20:34.181Z,62.18
2023-03-01T09:21:40.699Z,60.85
2023-03-01T09:22:36.212Z,62.71
2023-03-01T09:23:34.170Z,59.53
2023-03-01T09:24:34.187Z,57.94
2023-03-01T09:25:34.142Z,58.07
2023-03-01T09:26:34.363Z,60.80
2023-03-01T09:27:34.141Z,62.08
2023-03-01T09:28:34.112Z,59.85
2023-03-01T09:29:34.100Z,62.14
2023-03-01T09:30:34.179Z,61.46
2023-03-01T09:31:34.084Z,62.45
2023-03-01T09:32:34.114Z,59.29
2023-03-01T09:33:34.057Z,60.43
2023-03-01T09:34:34.068Z,58.98
2023-03-01T09:35:34.089Z,60.19
2023-03-01T09:36:34.213Z,60.09
2023-03-01T09:37:34.060Z,60.32
2023-03-01T09:38:34.040Z,64.11
2023-03-01T09:39:34.007Z,65.62
2023-03-01T09:40:34.004Z,64.66
2023-03-01T09:41:33.981Z,63.00
2023-03-01T09:42:33.992Z,59.89
2023-03-01T09:43:33.966Z,61.34
2023-03-01T09:44:33.991Z,65.43
2023-03-01T09:45:33.956Z,59.32
2023-03-01T09:46:34.417Z,59.66
2023-03-01T09:47:33.931Z,61.53
2023-03-01T09:48:33.977Z,61.97
2023-03-01T09:49:33.908Z,59.37
2023-03-01T09:50:33.900Z,65.03
2023-03-01T09:51:34.014Z,60.00
2023-03-01T09:52:33.875Z,59.30
2023-03-01T09:53:33.850Z,59.95
2023-03-01T09:54:33.852Z,62.45
2023-03-01T09:55:33.894Z,61.34
2023-03-01T09:56:33.840Z,61.43
2023-03-01T09:57:33.815Z,59.52
2023-03-01T09:58:33.820Z,59.89
2023-03-01T09:59:33.802Z,60.74
2023-03-01T10:00:33.806Z,61.64
2023-03-01T10:01:33.791Z,67.72
2023-03-01T10:02:33.779Z,65.62
2023-03-01T10:03:33.783Z,60.70
2023-03-01T10:04:35.408Z,65.72
2023-03-01T10:05:33.770Z,66.16
2023-03-01T10:06:35.508Z,64.90
2023-03-01T10:07:34.733Z,66.51
2023-03-01T10:08:33.708Z,63.83
2023-03-01T10:09:33.704Z,63.63
2023-03-01T10:10:33.700Z,65.26
2023-03-01T10:11:33.704Z,66.51
2023-03-01T10:12:33.675Z,62.12
2023-03-01T10:13:33.671Z,65.74
2023-03-01T10:14:33.674Z,61.78
2023-03-01T10:15:33.668Z,60.66
2023-03-01T10:16:33.633Z,63.04
2023-03-01T10:17:33.627Z,60.25
2023-03-01T10:18:33.683Z,58.62
2023-03-01T10:19:33.621Z,65.70
2023-03-01T10:20:33.600Z,60.62
2023-03-01T10:21:33.923Z,59.77
2023-03-01T10:22:33.598Z,62.36
2023-03-01T10:23:33.565Z,62.27
2023-03-01T10:24:33.553Z,60.27
2023-03-01T10:25:33.559Z,59.72
2023-03-01T10:26:33.849Z,59.64
2023-03-01T10:27:33.557Z,61.14
2023-03-01T10:28:33.518Z,60.90
2023-03-01T10:29:33.512Z,62.96
2023-03-01T10:30:33.529Z,62.10
2023-03-01T10:31:33.897Z,59.23
2023-03-01T10:32:33.521Z,59.68
2023-03-01T10:33:33.475Z,60.59
2023-03-01T10:34:33.477Z,59.98
2023-03-01T10:35:33.490Z,62.21
2023-03-01T10:36:33.636Z,60.95
2023-03-01T10:37:33.432Z,58.23
2023-03-01T10:38:33.429Z,66.93
2023-03-01T10:39:35.037Z,59.93
2023-03-01T10:40:33.419Z,66.08
2023-03-01T10:41:33.711Z,61.81
2023-03-01T10:42:33.409Z,59.45
2023-03-01T10:43:33.373Z,60.64
2023-03-01T10:44:33.357Z,68.76
2023-03-01T10:45:33.350Z,61.34
2023-03-01T10:46:33.384Z,62.03
2023-03-01T10:47:33.347Z,62.73
2023-03-01T10:48:33.338Z,60.22
2023-03-01T10:49:33.310Z,61.67
2023-03-01T10:50:33.309Z,60.36
2023-03-01T10:51:33.425Z,59.62
2023-03-01T10:52:33.304Z,59.94
2023-03-01T10:53:33.308Z,62.34
2023-03-01T10:54:33.287Z,61.17
2023-03-01T10:55:33.264Z,60.16
2023-03-01T10:56:33.256Z,64.27
2023-03-01T10:57:33.242Z,73.45
2023-03-01T10:58:33.243Z,61.48
2023-03-01T10:59:33.230Z,60.25
2023-03-01T11:00:33.230Z,60.58
2023-03-01T11:01:34.049Z,65.65
2023-03-01T11:02:33.279Z,64.56
2023-03-01T11:03:33.198Z,63.81
2023-03-01T11:04:33.224Z,75.56
2023-03-01T11:05:33.169Z,62.17
2023-03-01T11:06:33.154Z,58.94
2023-03-01T11:07:33.175Z,61.33
2023-03-01T11:08:34.866Z,62.09
2023-03-01T11:09:33.116Z,59.82
2023-03-01T11:10:33.136Z,61.50
2023-03-01T11:11:33.405Z,60.68
2023-03-01T11:12:33.090Z,59.76
2023-03-01T11:13:33.074Z,60.21
2023-03-01T11:14:33.085Z,63.49
2023-03-01T11:15:33.050Z,59.74
2023-03-01T11:16:33.105Z,59.47
2023-03-01T11:17:39.049Z,60.32
2023-03-01T11:18:47.066Z,59.17
2023-03-01T11:19:35.026Z,60.46
2023-03-01T11:20:33.047Z,59.98
2023-03-01T11:21:33.300Z,59.30
2023-03-01T11:22:33.009Z,59.69
2023-03-01T11:23:32.981Z,59.03
2023-03-01T11:24:32.977Z,59.71
2023-03-01T11:25:32.973Z,59.37
2023-03-01T11:26:33.167Z,67.74
2023-03-01T11:27:32.972Z,59.26
2023-03-01T11:28:32.932Z,59.42
2023-03-01T11:29:43.249Z,59.67
2023-03-01T11:30:34.911Z,65.62
2023-03-01T11:31:34.275Z,61.96
2023-03-01T11:32:32.973Z,58.83
2023-03-01T11:33:32.905Z,59.71
2023-03-01T11:34:32.908Z,58.61
2023-03-01T11:35:32.856Z,59.34
2023-03-01T11:36:32.862Z,59.87
2023-03-01T11:37:32.845Z,60.09
2023-03-01T11:38:32.867Z,60.86
2023-03-01T11:39:32.814Z,61.33
2023-03-01T11:40:32.810Z,67.08
2023-03-01T11:41:33.220Z,60.67
2023-03-01T11:42:32.825Z,58.81
2023-03-01T11:43:32.776Z,60.63
2023-03-01T11:44:32.841Z,64.26
2023-03-01T11:45:32.782Z,61.37
2023-03-01T11:46:32.959Z,60.33
2023-03-01T11:47:32.850Z,59.68
2023-03-01T11:48:48.515Z,60.69
2023-03-01T11:49:34.741Z,60.74
2023-03-01T11:50:32.718Z,59.21
2023-03-01T11:51:33.011Z,60.51
2023-03-01T11:52:32.688Z,59.27
2023-03-01T11:53:32.676Z,57.86
2023-03-01T11:54:32.697Z,62.32
2023-03-01T11:55:32.671Z,60.73
2023-03-01T11:56:32.669Z,58.88
2023-03-01T11:57:42.703Z,59.08
2023-03-01T11:58:34.632Z,59.65
2023-03-01T11:59:32.636Z,59.16
2023-03-01T12:00:32.638Z,57.67
2023-03-01T12:01:33.048Z,60.51
2023-03-01T12:02:32.634Z,65.33
2023-03-01T12:03:32.597Z,61.86
2023-03-01T12:04:32.593Z,60.33
2023-03-01T12:05:32.577Z,60.07
2023-03-01T12:06:32.568Z,59.65
2023-03-01T12:07:32.551Z,59.32
2023-03-01T12:08:32.546Z,61.21
2023-03-01T12:09:32.596Z,59.32
2023-03-01T12:10:32.501Z,58.72
2023-03-01T12:11:32.498Z,58.69
2023-03-01T12:12:32.497Z,59.98
2023-03-01T12:13:32.495Z,58.73
2023-03-01T12:14:32.492Z,68.58
2023-03-01T12:15:32.478Z,61.35
2023-03-01T12:16:38.842Z,61.54
2023-03-01T12:17:33.450Z,59.76
2023-03-01T12:18:32.428Z,59.95
2023-03-01T12:19:32.435Z,59.08
2023-03-01T12:20:32.452Z,58.49
2023-03-01T12:21:32.666Z,61.54
2023-03-01T12:22:32.415Z,61.38
2023-03-01T12:23:32.388Z,60.41
2023-03-01T12:24:32.387Z,60.34
2023-03-01T12:25:32.384Z,61.42
2023-03-01T12:26:32.366Z,66.45
2023-03-01T12:27:32.350Z,60.32
2023-03-01T12:28:32.378Z,59.26
2023-03-01T12:29:32.327Z,61.79
2023-03-01T12:30:32.350Z,59.54
2023-03-01T12:31:32.708Z,60.22
2023-03-01T12:32:34.054Z,60.42
2023-03-01T12:33:33.306Z,61.33
2023-03-01T12:34:32.276Z,58.78
2023-03-01T12:35:32.273Z,60.88
2023-03-01T12:36:33.651Z,58.99
2023-03-01T12:37:32.285Z,61.27
2023-03-01T12:38:32.259Z,60.23
2023-03-01T12:39:32.227Z,61.56
2023-03-01T12:40:32.218Z,59.88
2023-03-01T12:41:32.515Z,59.03
2023-03-01T12:42:32.207Z,60.46
2023-03-01T12:43:32.246Z,62.75
2023-03-01T12:44:32.191Z,59.12
2023-03-01T12:45:32.217Z,60.07
2023-03-01T12:46:32.522Z,59.72
2023-03-01T12:47:32.171Z,59.83
2023-03-01T12:48:32.144Z,59.88
2023-03-01T12:49:32.126Z,58.97
2023-03-01T12:50:32.118Z,57.81
2023-03-01T12:51:32.106Z,60.36
2023-03-01T12:52:32.147Z,60.00